createdAt,value
2016-11-25T00:00:55.440Z,18.9
2016-11-25T00:02:07.386Z,19.02
2016-11-25T00:03:19.809Z,19
2016-11-25T00:04:31.798Z,18.97
2016-11-25T00:05:44.270Z,18.93
2016-11-25T00:06:57.799Z,18.82
2016-11-25T00:08:10.707Z,18.74
2016-11-25T00:09:23.685Z,18.76
2016-11-25T00:10:37.314Z,18.75
2016-11-25T00:11:50.268Z,18.74
2016-11-25T00:13:03.730Z,18.76
2016-11-25T00:14:16.769Z,18.78
2016-11-25T00:15:29.866Z,18.86
2016-11-25T00:16:42.324Z,18.84
2016-11-25T00:17:55.276Z,18.82
2016-11-25T00:19:07.731Z,18.86
2016-11-25T00:20:21.132Z,18.79
2016-11-25T00:21:33.579Z,18.79
2016-11-25T00:22:47.133Z,18.84
2016-11-25T00:24:00.605Z,18.86
2016-11-25T00:25:13.040Z,18.75
2016-11-25T00:26:26.117Z,18.69
2016-11-25T00:27:39.149Z,18.71
2016-11-25T00:28:52.113Z,18.69
2016-11-25T00:30:04.023Z,18.69
2016-11-25T00:31:17.008Z,18.59
2016-11-25T00:32:29.452Z,18.6
2016-11-25T00:33:41.915Z,18.65
2016-11-25T00:34:55.419Z,18.63
2016-11-25T00:36:08.369Z,18.71
2016-11-25T00:37:20.939Z,18.68
2016-11-25T00:38:33.885Z,18.69
2016-11-25T00:39:47.433Z,18.69
2016-11-25T00:41:00.959Z,18.63
2016-11-25T00:42:13.418Z,18.6
2016-11-25T00:43:26.802Z,18.6
2016-11-25T00:44:40.311Z,18.66
2016-11-25T00:45:53.879Z,18.65
2016-11-25T00:47:06.805Z,18.71
2016-11-25T00:48:19.569Z,18.66
2016-11-25T00:49:33.050Z,18.74
2016-11-25T00:50:46.679Z,18.74
2016-11-25T00:51:58.062Z,18.74
2016-11-25T00:53:10.684Z,18.69
2016-11-25T00:54:23.114Z,18.71
2016-11-25T00:55:36.615Z,18.74
2016-11-25T00:56:50.087Z,18.68
2016-11-25T00:58:03.614Z,18.69
2016-11-25T00:59:16.669Z,18.69
2016-11-25T01:00:29.730Z,18.72
2016-11-25T01:01:42.139Z,18.68
2016-11-25T01:02:54.534Z,18.69
2016-11-25T01:04:07.482Z,18.71
2016-11-25T01:05:20.069Z,18.84
2016-11-25T01:06:33.585Z,18.89
2016-11-25T01:07:47.080Z,18.91
2016-11-25T01:09:00.536Z,18.86
2016-11-25T01:10:13.142Z,18.89
2016-11-25T01:11:26.066Z,19.06
2016-11-25T01:12:39.084Z,19.05
2016-11-25T01:13:52.609Z,19.07
2016-11-25T01:15:05.069Z,19.07
2016-11-25T01:16:17.994Z,19.06
2016-11-25T01:17:31.018Z,19.06
2016-11-25T01:18:44.560Z,19.06
2016-11-25T01:19:57.512Z,19.05
2016-11-25T01:21:10.661Z,18.97
2016-11-25T01:22:23.636Z,18.97
2016-11-25T01:25:21.682Z,18.86
2016-11-25T01:26:34.952Z,18.9
2016-11-25T01:27:47.933Z,18.91
2016-11-25T01:29:01.196Z,18.96
2016-11-25T01:30:14.161Z,18.86
2016-11-25T01:31:27.149Z,18.93
2016-11-25T01:32:40.766Z,18.97
2016-11-25T01:33:53.693Z,18.94
2016-11-25T01:35:07.307Z,18.9
2016-11-25T01:36:19.341Z,18.82
2016-11-25T01:37:32.662Z,18.84
2016-11-25T01:38:45.653Z,18.72
2016-11-25T01:39:58.772Z,18.65
2016-11-25T01:41:43.315Z,18.71
2016-11-25T01:42:55.869Z,18.66
2016-11-25T01:44:08.267Z,18.71
2016-11-25T01:45:21.239Z,18.69
2016-11-25T01:46:34.802Z,18.71
2016-11-25T01:47:47.378Z,18.66
2016-11-25T01:49:00.822Z,18.66
2016-11-25T01:50:13.815Z,18.61
2016-11-25T01:51:27.367Z,18.56
2016-11-25T01:52:40.962Z,18.59
2016-11-25T01:53:53.508Z,18.54
2016-11-25T01:55:06.456Z,18.6
2016-11-25T01:56:19.927Z,18.6
2016-11-25T01:57:32.934Z,18.54
2016-11-25T01:58:45.930Z,18.61
2016-11-25T01:59:57.893Z,18.54
2016-11-25T02:01:11.444Z,18.53
2016-11-25T02:02:24.453Z,18.61
2016-11-25T02:04:09.232Z,18.5
2016-11-25T02:05:22.700Z,18.49
2016-11-25T02:06:35.762Z,18.5
2016-11-25T02:07:48.457Z,18.51
2016-11-25T02:09:02.171Z,18.51
2016-11-25T02:10:15.664Z,18.5
2016-11-25T02:11:28.666Z,18.54
2016-11-25T02:12:41.629Z,18.54
2016-11-25T02:13:54.075Z,18.49
2016-11-25T02:15:05.585Z,18.49
2016-11-25T02:16:18.036Z,18.41
2016-11-25T02:17:31.139Z,18.42
2016-11-25T02:18:43.269Z,18.41
2016-11-25T02:19:56.248Z,18.36
2016-11-25T02:21:08.385Z,18.39
2016-11-25T02:22:21.284Z,18.41
2016-11-25T02:23:33.201Z,18.38
2016-11-25T02:24:45.791Z,18.36
2016-11-25T02:25:58.998Z,18.45
2016-11-25T02:27:11.917Z,18.41
2016-11-25T02:28:23.864Z,18.42
2016-11-25T02:29:37.354Z,18.39
2016-11-25T02:30:50.867Z,18.39
2016-11-25T02:32:03.857Z,18.5
2016-11-25T02:33:16.261Z,18.49
2016-11-25T02:34:29.195Z,18.47
2016-11-25T02:35:42.170Z,18.49
2016-11-25T02:36:55.287Z,18.49
2016-11-25T02:38:08.330Z,18.51
2016-11-25T02:39:21.823Z,18.53
2016-11-25T02:40:34.867Z,18.54
2016-11-25T02:41:47.944Z,18.51
2016-11-25T02:42:59.813Z,18.5
2016-11-25T02:44:12.821Z,18.53
2016-11-25T02:45:26.363Z,18.59
2016-11-25T02:46:39.846Z,18.66
2016-11-25T02:47:52.898Z,18.61
2016-11-25T02:49:04.771Z,18.54
2016-11-25T02:50:18.865Z,18.66
2016-11-25T02:51:32.345Z,18.56
2016-11-25T02:52:45.752Z,18.65
2016-11-25T02:53:58.093Z,18.65
2016-11-25T02:55:41.056Z,18.63
2016-11-25T02:56:53.375Z,18.63
2016-11-25T02:58:06.429Z,18.71
2016-11-25T02:59:19.389Z,18.71
2016-11-25T03:00:32.861Z,18.71
2016-11-25T03:01:46.328Z,18.72
2016-11-25T03:02:59.772Z,18.76
2016-11-25T03:04:12.725Z,18.76
2016-11-25T03:05:25.647Z,18.76
2016-11-25T03:06:38.016Z,18.79
2016-11-25T03:07:51.434Z,18.76
2016-11-25T03:09:03.919Z,18.74
2016-11-25T03:10:16.899Z,18.79
2016-11-25T03:11:29.796Z,18.76
2016-11-25T03:12:42.718Z,18.74
2016-11-25T03:13:55.571Z,18.71
2016-11-25T03:15:08.556Z,18.69
2016-11-25T03:16:52.586Z,18.65
2016-11-25T03:18:06.215Z,18.56
2016-11-25T03:19:19.304Z,18.61
2016-11-25T03:20:32.164Z,18.65
2016-11-25T03:21:44.531Z,18.53
2016-11-25T03:22:58.032Z,18.49
2016-11-25T03:24:11.433Z,18.53
2016-11-25T03:25:23.823Z,18.47
2016-11-25T03:26:36.841Z,18.54
2016-11-25T03:27:50.241Z,18.51
2016-11-25T03:29:03.188Z,18.5
2016-11-25T03:30:16.751Z,18.5
2016-11-25T03:31:28.781Z,18.5
2016-11-25T03:32:41.772Z,18.54
2016-11-25T03:33:54.703Z,18.5
2016-11-25T03:35:06.998Z,18.44
2016-11-25T03:36:19.354Z,18.44
2016-11-25T03:37:32.261Z,18.41
2016-11-25T03:38:45.755Z,18.34
2016-11-25T03:39:57.671Z,18.36
2016-11-25T03:41:10.115Z,18.31
2016-11-25T03:42:23.625Z,18.39
2016-11-25T03:43:36.614Z,18.41
2016-11-25T03:44:48.935Z,18.49
2016-11-25T03:46:01.475Z,18.54
2016-11-25T03:47:12.847Z,18.49
2016-11-25T03:48:25.706Z,18.49
2016-11-25T03:49:38.693Z,18.53
2016-11-25T03:50:51.088Z,18.49
2016-11-25T03:52:04.107Z,18.54
2016-11-25T03:53:16.456Z,18.53
2016-11-25T03:54:29.841Z,18.49
2016-11-25T03:55:42.267Z,18.51
2016-11-25T03:56:55.926Z,18.5
2016-11-25T03:58:09.340Z,18.66
2016-11-25T03:59:21.679Z,18.6
2016-11-25T04:00:34.529Z,18.6
2016-11-25T04:01:47.510Z,18.6
2016-11-25T04:03:01.151Z,18.65
2016-11-25T04:04:14.561Z,18.63
2016-11-25T04:05:27.540Z,18.59
2016-11-25T04:06:40.204Z,18.56
2016-11-25T04:07:53.122Z,18.56
2016-11-25T04:09:06.104Z,18.6
2016-11-25T04:10:19.213Z,18.6
2016-11-25T04:11:31.624Z,18.61
2016-11-25T04:12:43.752Z,18.63
2016-11-25T04:13:57.058Z,18.65
2016-11-25T04:15:10.530Z,18.54
2016-11-25T04:16:23.732Z,18.49
2016-11-25T04:17:37.152Z,18.6
2016-11-25T04:18:50.666Z,18.61
2016-11-25T04:20:03.981Z,18.65
2016-11-25T04:21:17.408Z,18.61
2016-11-25T04:22:30.303Z,18.63
2016-11-25T04:23:43.210Z,18.65
2016-11-25T04:24:56.789Z,18.66
2016-11-25T04:26:09.638Z,18.63
2016-11-25T04:27:22.016Z,18.63
2016-11-25T04:28:35.398Z,18.61
2016-11-25T04:29:47.778Z,18.66
2016-11-25T04:31:00.181Z,18.68
2016-11-25T04:32:12.491Z,18.68
2016-11-25T04:33:24.897Z,18.61
2016-11-25T04:34:38.326Z,18.66
2016-11-25T04:35:50.808Z,18.63
2016-11-25T04:37:03.756Z,18.69
2016-11-25T04:38:17.444Z,18.66
2016-11-25T04:39:30.353Z,18.69
2016-11-25T04:40:42.797Z,18.71
2016-11-25T04:41:56.385Z,18.68
2016-11-25T04:43:09.369Z,18.74
2016-11-25T04:44:22.811Z,18.71
2016-11-25T04:45:35.812Z,18.72
2016-11-25T04:47:18.931Z,18.72
2016-11-25T04:48:31.272Z,18.75
2016-11-25T04:49:44.684Z,18.81
2016-11-25T04:50:57.608Z,18.75
2016-11-25T04:52:10.171Z,18.75
2016-11-25T04:53:23.079Z,18.74
2016-11-25T04:54:34.973Z,18.74
2016-11-25T04:55:48.351Z,18.72
2016-11-25T04:57:32.970Z,18.76
2016-11-25T04:58:45.321Z,18.76
2016-11-25T04:59:58.213Z,18.72
2016-11-25T05:01:11.633Z,18.86
2016-11-25T05:02:25.233Z,18.74
2016-11-25T05:05:21.740Z,18.82
2016-11-25T05:06:34.650Z,18.87
2016-11-25T05:07:47.132Z,18.79
2016-11-25T05:08:59.586Z,18.9
2016-11-25T05:10:13.233Z,18.89
2016-11-25T05:11:26.686Z,18.9
2016-11-25T05:12:39.644Z,18.93
2016-11-25T05:13:53.354Z,18.84
2016-11-25T05:15:06.516Z,18.91
2016-11-25T05:16:18.971Z,18.91
2016-11-25T05:17:32.251Z,19.05
2016-11-25T05:18:45.009Z,19.07
2016-11-25T05:19:58.430Z,19.07
2016-11-25T05:21:11.320Z,19.02
2016-11-25T05:22:24.003Z,19.07
2016-11-25T05:23:36.873Z,19.02
2016-11-25T05:24:49.337Z,19.06
2016-11-25T05:26:02.852Z,19.16
2016-11-25T05:27:16.327Z,19
2016-11-25T05:28:29.205Z,19.05
2016-11-25T05:29:42.786Z,19.12
2016-11-25T05:30:55.298Z,19
2016-11-25T05:32:08.289Z,19.02
2016-11-25T05:33:21.667Z,19
2016-11-25T05:34:33.566Z,18.96
2016-11-25T05:35:47.007Z,19.16
2016-11-25T05:37:00.406Z,19.16
2016-11-25T05:38:13.331Z,19.07
2016-11-25T05:39:26.108Z,19.09
2016-11-25T05:40:39.151Z,19.19
2016-11-25T05:41:51.027Z,19.12
2016-11-25T05:43:03.876Z,19.07
2016-11-25T05:44:16.940Z,19.16
2016-11-25T05:45:29.886Z,19.1
2016-11-25T05:46:42.362Z,19.12
2016-11-25T05:47:55.344Z,19.16
2016-11-25T05:49:07.200Z,19.16
2016-11-25T05:50:51.423Z,19.13
2016-11-25T05:52:04.515Z,19.23
2016-11-25T05:53:17.477Z,19.23
2016-11-25T05:54:30.873Z,19.25
2016-11-25T05:55:42.771Z,19.23
2016-11-25T05:56:55.689Z,19.19
2016-11-25T05:58:09.080Z,19.12
2016-11-25T05:59:21.460Z,19.12
2016-11-25T06:00:35.091Z,19.15
2016-11-25T06:01:48.138Z,19.15
2016-11-25T06:03:01.011Z,19.23
2016-11-25T06:04:13.891Z,19.2
2016-11-25T06:05:27.338Z,19.2
2016-11-25T06:06:40.333Z,19.17
2016-11-25T06:07:53.300Z,19.19
2016-11-25T06:09:06.176Z,19.19
2016-11-25T06:10:19.538Z,19.23
2016-11-25T06:11:32.597Z,19.23
2016-11-25T06:12:45.662Z,19.2
2016-11-25T06:13:59.148Z,19.23
2016-11-25T06:15:12.038Z,19.24
2016-11-25T06:16:24.547Z,19.2
2016-11-25T06:17:36.948Z,19.31
2016-11-25T06:18:49.442Z,19.34
2016-11-25T06:20:01.802Z,19.37
2016-11-25T06:21:14.188Z,19.37
2016-11-25T06:22:26.093Z,19.3
2016-11-25T06:23:39.138Z,19.32
2016-11-25T06:24:52.003Z,19.34
2016-11-25T06:26:04.882Z,19.38
2016-11-25T06:27:17.809Z,19.3
2016-11-25T06:28:31.190Z,19.32
2016-11-25T06:29:43.591Z,19.4
2016-11-25T06:30:56.520Z,19.46
2016-11-25T06:32:09.395Z,19.45
2016-11-25T06:33:22.850Z,19.4
2016-11-25T06:34:35.852Z,19.53
2016-11-25T06:35:49.283Z,19.4
2016-11-25T06:37:01.688Z,19.43
2016-11-25T06:38:14.588Z,19.53
2016-11-25T06:39:27.490Z,19.46
2016-11-25T06:40:40.355Z,19.5
2016-11-25T06:41:53.263Z,19.56
2016-11-25T06:43:06.782Z,19.56
2016-11-25T06:44:20.123Z,19.52
2016-11-25T06:45:33.581Z,19.55
2016-11-25T06:46:46.495Z,19.5
2016-11-25T06:47:58.915Z,19.53
2016-11-25T06:49:11.264Z,19.49
2016-11-25T06:50:24.209Z,19.46
2016-11-25T06:51:36.575Z,19.55
2016-11-25T06:52:49.482Z,19.47
2016-11-25T06:54:01.331Z,19.5
2016-11-25T06:55:14.195Z,19.56
2016-11-25T06:56:27.183Z,19.49
2016-11-25T06:57:39.535Z,19.55
2016-11-25T06:58:52.491Z,19.57
2016-11-25T07:00:05.952Z,19.53
2016-11-25T07:01:19.465Z,19.56
2016-11-25T07:02:32.439Z,19.55
2016-11-25T07:03:45.917Z,19.52
2016-11-25T07:04:59.410Z,19.52
2016-11-25T07:06:11.810Z,19.47
2016-11-25T07:07:25.332Z,19.53
2016-11-25T07:08:38.300Z,19.61
2016-11-25T07:10:22.303Z,19.57
2016-11-25T07:11:35.679Z,19.56
2016-11-25T07:12:48.204Z,19.53
2016-11-25T07:14:01.469Z,19.45
2016-11-25T07:15:13.857Z,19.49
2016-11-25T07:16:26.163Z,19.46
2016-11-25T07:17:39.564Z,19.46
2016-11-25T07:18:51.431Z,19.5
2016-11-25T07:20:04.871Z,19.52
2016-11-25T07:21:17.760Z,19.46
2016-11-25T07:22:30.660Z,19.57
2016-11-25T07:23:43.694Z,19.52
2016-11-25T07:24:56.595Z,19.53
2016-11-25T07:26:09.567Z,19.57
2016-11-25T07:27:22.577Z,19.46
2016-11-25T07:28:36.095Z,19.43
2016-11-25T07:29:49.705Z,19.56
2016-11-25T07:31:02.650Z,19.47
2016-11-25T07:32:16.089Z,19.46
2016-11-25T07:33:29.143Z,19.55
2016-11-25T07:34:42.208Z,19.43
2016-11-25T07:35:55.723Z,19.52
2016-11-25T07:37:08.702Z,19.55
2016-11-25T07:38:22.254Z,19.45
2016-11-25T07:39:35.733Z,19.38
2016-11-25T07:40:49.232Z,19.43
2016-11-25T07:42:01.767Z,19.46
2016-11-25T07:43:15.328Z,19.46
2016-11-25T07:44:28.818Z,19.45
2016-11-25T07:45:41.936Z,19.43
2016-11-25T07:46:54.993Z,19.46
2016-11-25T07:48:07.995Z,19.45
2016-11-25T07:49:20.904Z,19.43
2016-11-25T07:50:32.285Z,19.42
2016-11-25T07:51:45.260Z,19.45
2016-11-25T07:52:58.269Z,19.42
2016-11-25T07:54:42.971Z,19.43
2016-11-25T07:55:55.665Z,19.42
2016-11-25T07:57:08.080Z,19.42
2016-11-25T07:58:21.085Z,19.46
2016-11-25T07:59:33.614Z,19.37
2016-11-25T08:00:47.045Z,19.47
2016-11-25T08:01:59.520Z,19.3
2016-11-25T08:03:13.002Z,19.34
2016-11-25T08:04:25.978Z,19.46
2016-11-25T08:05:38.959Z,19.46
2016-11-25T08:06:52.003Z,19.46
2016-11-25T08:08:05.008Z,19.34
2016-11-25T08:09:17.978Z,19.53
2016-11-25T08:10:31.457Z,19.38
2016-11-25T08:11:44.912Z,19.49
2016-11-25T08:12:58.365Z,19.46
2016-11-25T08:14:11.281Z,19.5
2016-11-25T08:15:24.262Z,19.45
2016-11-25T08:16:37.755Z,19.5
2016-11-25T08:17:51.361Z,19.52
2016-11-25T08:19:03.800Z,19.49
2016-11-25T08:20:17.187Z,19.49
2016-11-25T08:21:29.303Z,19.53
2016-11-25T08:22:42.830Z,19.5
2016-11-25T08:23:55.787Z,19.52
2016-11-25T08:25:08.802Z,19.52
2016-11-25T08:26:21.819Z,19.61
2016-11-25T08:27:35.303Z,19.52
2016-11-25T08:28:48.878Z,19.47
2016-11-25T08:30:01.305Z,19.45
2016-11-25T08:31:14.272Z,19.64
2016-11-25T08:34:11.505Z,19.61
2016-11-25T08:35:25.002Z,19.52
2016-11-25T08:36:38.085Z,19.52
2016-11-25T08:37:51.557Z,19.61
2016-11-25T08:39:05.058Z,19.61
2016-11-25T08:40:18.503Z,19.63
2016-11-25T08:41:31.461Z,19.63
2016-11-25T08:42:44.969Z,19.5
2016-11-25T08:43:57.983Z,19.61
2016-11-25T08:45:11.615Z,19.61
2016-11-25T08:46:24.110Z,19.63
2016-11-25T08:47:38.968Z,19.6
2016-11-25T08:48:52.018Z,19.67
2016-11-25T08:50:04.981Z,19.63
2016-11-25T08:51:18.466Z,19.64
2016-11-25T08:52:31.387Z,19.61
2016-11-25T08:53:43.848Z,19.68
2016-11-25T08:54:57.703Z,19.65
2016-11-25T08:56:11.384Z,19.65
2016-11-25T08:57:46.306Z,19.61
2016-11-25T08:58:59.283Z,19.64
2016-11-25T09:00:11.719Z,19.56
2016-11-25T09:01:24.848Z,19.63
2016-11-25T09:02:38.422Z,19.64
2016-11-25T09:03:51.372Z,19.71
2016-11-25T09:05:04.334Z,19.63
2016-11-25T09:06:16.807Z,19.75
2016-11-25T09:07:29.964Z,19.75
2016-11-25T09:08:42.977Z,19.72
2016-11-25T09:09:55.925Z,19.71
2016-11-25T09:11:08.335Z,19.72
2016-11-25T09:12:21.480Z,19.72
2016-11-25T09:13:34.484Z,19.75
2016-11-25T09:14:46.356Z,19.86
2016-11-25T09:16:30.698Z,19.87
2016-11-25T09:17:43.773Z,19.9
2016-11-25T09:18:55.736Z,19.87
2016-11-25T09:20:07.751Z,19.87
2016-11-25T09:21:20.762Z,19.86
2016-11-25T09:22:33.272Z,19.95
2016-11-25T09:23:44.648Z,19.92
2016-11-25T09:24:57.662Z,19.87
2016-11-25T09:26:10.754Z,19.97
2016-11-25T09:27:23.347Z,19.95
2016-11-25T09:28:35.350Z,20
2016-11-25T09:29:47.955Z,20.04
2016-11-25T09:31:01.813Z,20.12
2016-11-25T09:32:15.271Z,20.02
2016-11-25T09:33:28.776Z,20.2
2016-11-25T09:34:42.334Z,20.26
2016-11-25T09:35:54.245Z,20.25
2016-11-25T09:37:06.709Z,20.34
2016-11-25T09:38:19.709Z,20.32
2016-11-25T09:39:32.294Z,20.51
2016-11-25T09:40:45.826Z,20.67
2016-11-25T09:41:58.882Z,20.76
2016-11-25T09:43:11.348Z,20.74
2016-11-25T09:44:24.417Z,20.94
2016-11-25T09:45:36.838Z,21.01
2016-11-25T09:46:49.246Z,20.98
2016-11-25T09:48:02.205Z,20.98
2016-11-25T09:49:15.200Z,21.08
2016-11-25T09:50:27.214Z,21.13
2016-11-25T09:51:40.836Z,21.12
2016-11-25T09:52:53.307Z,21.27
2016-11-25T09:54:06.937Z,21.23
2016-11-25T09:55:19.934Z,21.36
2016-11-25T09:56:33.519Z,21.38
2016-11-25T09:57:46.430Z,21.38
2016-11-25T09:58:58.373Z,21.38
2016-11-25T10:00:10.380Z,21.33
2016-11-25T10:01:23.426Z,21.28
2016-11-25T10:02:35.871Z,21.4
2016-11-25T10:03:48.365Z,21.48
2016-11-25T10:05:33.568Z,21.89
2016-11-25T10:06:46.617Z,22.24
2016-11-25T10:08:31.313Z,22.59
2016-11-25T10:09:43.940Z,22.69
2016-11-25T10:10:56.977Z,22.79
2016-11-25T10:12:09.535Z,22.86
2016-11-25T10:13:23.003Z,23.28
2016-11-25T10:14:36.027Z,23.59
2016-11-25T10:15:49.537Z,23.62
2016-11-25T10:17:03.036Z,23.26
2016-11-25T10:18:16.523Z,22.85
2016-11-25T10:19:29.006Z,22.71
2016-11-25T10:20:41.956Z,22.84
2016-11-25T10:22:26.736Z,23.21
2016-11-25T10:23:40.332Z,24.03
2016-11-25T10:24:53.246Z,24.21
2016-11-25T10:26:05.140Z,23.99
2016-11-25T10:27:17.564Z,23.81
2016-11-25T10:28:31.263Z,24.21
2016-11-25T10:29:43.673Z,24.22
2016-11-25T10:30:56.147Z,24.09
2016-11-25T10:32:08.618Z,23.97
2016-11-25T10:33:21.648Z,24.11
2016-11-25T10:34:34.611Z,24.3
2016-11-25T10:35:48.098Z,24.07
2016-11-25T10:37:01.557Z,23.97
2016-11-25T10:38:15.085Z,23.84
2016-11-25T10:39:27.677Z,23.53
2016-11-25T10:40:40.674Z,23.16
2016-11-25T10:41:52.589Z,23.09
2016-11-25T10:43:05.659Z,23.26
2016-11-25T10:44:18.642Z,23.47
2016-11-25T10:45:31.587Z,23.53
2016-11-25T10:46:44.600Z,23.19
2016-11-25T10:47:57.591Z,23.04
2016-11-25T10:49:10.058Z,23.09
2016-11-25T10:50:23.705Z,23.24
2016-11-25T10:51:37.227Z,23.4
2016-11-25T10:52:50.195Z,23.53
2016-11-25T10:54:02.221Z,23.71
2016-11-25T10:55:15.223Z,23.75
2016-11-25T10:56:27.727Z,23.97
2016-11-25T10:57:40.199Z,23.92
2016-11-25T10:58:52.651Z,23.77
2016-11-25T11:00:06.143Z,23.7
2016-11-25T11:01:19.762Z,23.56
2016-11-25T11:02:32.264Z,23.34
2016-11-25T11:03:45.239Z,23.21
2016-11-25T11:04:57.716Z,23.21
2016-11-25T11:06:10.692Z,23.26
2016-11-25T11:07:23.737Z,23.21
2016-11-25T11:08:36.734Z,23.45
2016-11-25T11:09:50.304Z,23.87
2016-11-25T11:11:03.295Z,24.14
2016-11-25T11:12:16.393Z,24.45
2016-11-25T11:13:29.335Z,24.52
2016-11-25T11:14:42.341Z,24.63
2016-11-25T11:15:55.852Z,24.77
2016-11-25T11:17:08.928Z,24.7
2016-11-25T11:18:21.966Z,24.89
2016-11-25T11:19:34.492Z,24.94
2016-11-25T11:20:47.392Z,24.55
2016-11-25T11:21:59.890Z,24.61
2016-11-25T11:23:13.475Z,24.78
2016-11-25T11:24:27.144Z,24.86
2016-11-25T11:25:40.124Z,24.94
2016-11-25T11:26:53.097Z,25.27
2016-11-25T11:28:06.066Z,25.49
2016-11-25T11:29:19.085Z,25.42
2016-11-25T11:30:32.169Z,26.06
2016-11-25T11:31:45.688Z,27
2016-11-25T11:32:58.095Z,27.87
2016-11-25T11:34:10.631Z,28.42
2016-11-25T11:35:23.621Z,28.48
2016-11-25T11:36:37.188Z,28.27
2016-11-25T11:37:49.722Z,27.94
2016-11-25T11:39:02.277Z,27.84
2016-11-25T11:40:15.211Z,27.96
2016-11-25T11:41:28.755Z,27.74
2016-11-25T11:42:40.647Z,27.49
2016-11-25T11:43:53.535Z,27.11
2016-11-25T11:45:06.696Z,26.72
2016-11-25T11:46:19.683Z,26.52
2016-11-25T11:47:32.640Z,26.64
2016-11-25T11:48:45.112Z,27.43
2016-11-25T11:49:58.943Z,28.49
2016-11-25T11:51:12.497Z,29.79
2016-11-25T11:52:25.539Z,30.62
2016-11-25T11:53:38.017Z,31.13
2016-11-25T11:54:51.028Z,31.88
2016-11-25T11:56:03.046Z,32.1
2016-11-25T11:57:16.041Z,32.06
2016-11-25T11:58:28.953Z,31.53
2016-11-25T11:59:41.918Z,30.64
2016-11-25T12:00:55.437Z,30.18
2016-11-25T12:02:08.963Z,29.79
2016-11-25T12:03:22.085Z,29.81
2016-11-25T12:04:35.161Z,30.31
2016-11-25T12:05:48.752Z,31.38
2016-11-25T12:07:01.834Z,32.05
2016-11-25T12:08:13.217Z,32.16
2016-11-25T12:09:26.797Z,32.03
2016-11-25T12:10:40.289Z,31.9
2016-11-25T12:11:52.757Z,31.28
2016-11-25T12:13:37.381Z,31.26
2016-11-25T12:14:50.364Z,31.53
2016-11-25T12:16:03.437Z,31.49
2016-11-25T12:17:17.059Z,31.6
2016-11-25T12:18:30.536Z,32.32
2016-11-25T12:19:43.027Z,32.32
2016-11-25T12:20:56.136Z,32.52
2016-11-25T12:22:09.065Z,32.94
2016-11-25T12:23:22.669Z,32.83
2016-11-25T12:24:36.181Z,32.91
2016-11-25T12:25:48.560Z,32.3
2016-11-25T12:27:01.558Z,31.75
2016-11-25T12:28:13.610Z,31.5
2016-11-25T12:29:26.607Z,31.3
2016-11-25T12:30:39.918Z,30.88
2016-11-25T12:31:53.529Z,30.63
2016-11-25T12:33:06.001Z,30.89
2016-11-25T12:34:18.955Z,30.81
2016-11-25T12:36:02.681Z,31.16
2016-11-25T12:37:21.962Z,30.94
2016-11-25T12:38:39.815Z,30.86
2016-11-25T12:39:52.241Z,31.25
2016-11-25T12:41:05.832Z,31.68
2016-11-25T12:42:19.431Z,31.62
2016-11-25T12:43:32.403Z,32.08
2016-11-25T12:44:45.955Z,32.57
2016-11-25T12:45:58.921Z,32.87
2016-11-25T12:47:12.466Z,33.06
2016-11-25T12:48:25.458Z,33.08
2016-11-25T12:49:38.488Z,33.26
2016-11-25T12:50:52.013Z,33.44
2016-11-25T12:52:05.565Z,33.21
2016-11-25T12:53:18.636Z,33.01
2016-11-25T12:54:31.727Z,32.94
2016-11-25T12:55:44.268Z,32.1
2016-11-25T12:56:57.815Z,31.71
2016-11-25T12:58:10.857Z,31.58
2016-11-25T12:59:22.802Z,31.34
2016-11-25T13:00:36.317Z,31.19
2016-11-25T13:01:49.846Z,31.63
2016-11-25T13:03:02.791Z,31.87
2016-11-25T13:04:16.415Z,31.77
2016-11-25T13:05:29.356Z,31.65
2016-11-25T13:06:42.849Z,31.28
2016-11-25T13:07:55.340Z,31.36
2016-11-25T13:09:08.360Z,31.56
2016-11-25T13:10:20.989Z,31.78
2016-11-25T13:11:34.501Z,31.91
2016-11-25T13:12:47.461Z,32.35
2016-11-25T13:14:00.984Z,32.68
2016-11-25T13:15:14.107Z,32.72
2016-11-25T13:16:26.597Z,32.74
2016-11-25T13:17:39.112Z,33.11
2016-11-25T13:18:51.541Z,33.84
2016-11-25T13:20:05.141Z,34.41
2016-11-25T13:21:18.177Z,34.71
2016-11-25T13:22:31.674Z,34.75
2016-11-25T13:23:44.699Z,34.34
2016-11-25T13:24:57.187Z,34.11
2016-11-25T13:26:09.235Z,33.89
2016-11-25T13:27:22.812Z,34.15
2016-11-25T13:28:35.252Z,34.48
2016-11-25T13:29:47.730Z,35.04
2016-11-25T13:31:00.700Z,34.67
2016-11-25T13:32:14.244Z,34.3
2016-11-25T13:33:26.210Z,33.61
2016-11-25T13:34:39.180Z,33.24
2016-11-25T13:35:52.812Z,33.65
2016-11-25T13:39:37.412Z,35.34
2016-11-25T13:40:05.576Z,35.84
2016-11-25T13:40:33.818Z,36.32
2016-11-25T13:41:01.981Z,36.51
2016-11-25T13:41:30.119Z,36.37
2016-11-25T13:41:58.557Z,36.39
2016-11-25T13:42:26.953Z,36.25
2016-11-25T13:42:55.125Z,36.08
2016-11-25T13:43:23.100Z,35.61
2016-11-25T13:43:51.094Z,35.4
2016-11-25T13:44:19.267Z,35.05
2016-11-25T13:44:47.606Z,34.93
2016-11-25T13:45:15.885Z,35.04
2016-11-25T13:45:44.081Z,34.93
2016-11-25T13:46:12.171Z,34.89
2016-11-25T13:46:40.450Z,34.87
2016-11-25T13:47:08.692Z,34.79
2016-11-25T13:47:36.869Z,34.72
2016-11-25T13:48:05.160Z,34.84
2016-11-25T13:48:33.248Z,34.71
2016-11-25T13:49:01.411Z,34.54
2016-11-25T13:49:29.682Z,34.54
2016-11-25T13:49:57.919Z,34.72
2016-11-25T13:50:46.544Z,34.67
2016-11-25T13:51:14.732Z,34.89
2016-11-25T13:51:42.835Z,35.02
2016-11-25T13:52:11.043Z,35.2
2016-11-25T13:52:39.306Z,35.18
2016-11-25T13:53:07.588Z,34.87
2016-11-25T13:53:35.770Z,34.67
2016-11-25T13:54:03.959Z,34.45
2016-11-25T13:54:32.243Z,34.43
2016-11-25T13:55:00.727Z,34.41
2016-11-25T13:55:28.826Z,34.41
2016-11-25T13:55:57.160Z,34.56
2016-11-25T13:56:25.460Z,34.77
2016-11-25T13:56:53.648Z,35.01
2016-11-25T13:57:21.847Z,35.27
2016-11-25T13:57:49.953Z,35.45
2016-11-25T13:58:18.398Z,35.68
2016-11-25T13:58:46.722Z,35.96
2016-11-25T13:59:14.978Z,36.08
2016-11-25T13:59:43.209Z,36.18
2016-11-25T14:00:11.535Z,36.17
2016-11-25T14:00:39.720Z,35.89
2016-11-25T14:01:07.965Z,35.69
2016-11-25T14:01:36.169Z,35.61
2016-11-25T14:02:04.364Z,35.52
2016-11-25T14:02:32.695Z,35.43
2016-11-25T14:03:00.912Z,35.21
2016-11-25T14:03:29.010Z,35.38
2016-11-25T14:03:57.267Z,35.39
2016-11-25T14:04:25.580Z,35.58
2016-11-25T14:04:53.775Z,35.77
2016-11-25T14:05:21.948Z,35.87
2016-11-25T14:05:50.211Z,36.02
2016-11-25T14:06:18.400Z,36.19
2016-11-25T14:06:46.508Z,36.33
2016-11-25T14:07:14.594Z,36.19
2016-11-25T14:07:42.832Z,36.01
2016-11-25T14:08:11.010Z,35.57
2016-11-25T14:08:39.089Z,35.21
2016-11-25T14:09:07.297Z,34.81
2016-11-25T14:09:35.587Z,34.52
2016-11-25T14:10:35.389Z,34.39
2016-11-25T14:11:03.655Z,33.99
2016-11-25T14:11:31.731Z,33.71
2016-11-25T14:11:59.807Z,33.53
2016-11-25T14:12:28.005Z,33.37
2016-11-25T14:12:56.201Z,33.26
2016-11-25T14:13:24.549Z,33.09
2016-11-25T14:13:52.695Z,33.11
2016-11-25T14:14:20.789Z,33.18
2016-11-25T14:14:49.156Z,33.31
2016-11-25T14:15:17.267Z,33.46
2016-11-25T14:15:45.574Z,33.65
2016-11-25T14:16:13.663Z,33.93
2016-11-25T14:16:41.916Z,34.17
2016-11-25T14:17:09.996Z,34.29
2016-11-25T14:17:38.253Z,34.41
2016-11-25T14:18:06.442Z,34.63
2016-11-25T14:18:34.573Z,34.75
2016-11-25T14:19:02.731Z,35.01
2016-11-25T14:19:30.888Z,35.23
2016-11-25T14:19:59.133Z,35.31
2016-11-25T14:20:27.308Z,35.45
2016-11-25T14:20:55.550Z,35.52
2016-11-25T14:21:23.966Z,35.6
2016-11-25T14:21:52.178Z,35.58
2016-11-25T14:22:20.167Z,35.52
2016-11-25T14:22:48.272Z,35.61
2016-11-25T14:23:16.576Z,35.76
2016-11-25T14:23:44.770Z,35.8
2016-11-25T14:24:12.959Z,35.96
2016-11-25T14:24:41.227Z,36.04
2016-11-25T14:25:09.514Z,36.22
2016-11-25T14:25:37.782Z,36.3
2016-11-25T14:26:06.116Z,36.26
2016-11-25T14:26:34.494Z,36.32
2016-11-25T14:27:02.785Z,36.21
2016-11-25T14:28:02.708Z,36.32
2016-11-25T14:28:30.782Z,36.24
2016-11-25T14:28:58.846Z,36.33
2016-11-25T14:29:26.933Z,36.47
2016-11-25T14:29:55.149Z,36.53
2016-11-25T14:30:23.372Z,36.52
2016-11-25T14:30:51.697Z,36.51
2016-11-25T14:31:19.980Z,36.43
2016-11-25T14:31:47.985Z,36.52
2016-11-25T14:32:16.120Z,36.68
2016-11-25T14:32:44.499Z,36.81
2016-11-25T14:33:12.712Z,36.95
2016-11-25T14:33:40.910Z,37
2016-11-25T14:34:09.151Z,37.05
2016-11-25T14:34:37.332Z,37.05
2016-11-25T14:35:06.137Z,37.11